createdAt,value
2023-04-17T00:02:15.954Z,18.08
2023-04-17T00:04:45.498Z,17.77
2023-04-17T00:07:13.757Z,17.63
2023-04-17T00:09:41.811Z,19.15
2023-04-17T00:12:09.872Z,18.58
2023-04-17T00:14:39.310Z,19.50
2023-04-17T00:17:07.527Z,18.23
2023-04-17T00:19:35.626Z,19.40
2023-04-17T00:22:03.664Z,18.13
2023-04-17T00:24:31.739Z,19.50
2023-04-17T00:26:59.802Z,19.60
2023-04-17T00:29:27.928Z,19.05
2023-04-17T00:31:57.370Z,19.63
2023-04-17T00:34:25.550Z,19.23
2023-04-17T00:36:53.674Z,20.30
2023-04-17T00:39:21.721Z,19.90
2023-04-17T00:41:49.868Z,19.48
2023-04-17T00:44:17.994Z,19.13
2023-04-17T00:46:46.153Z,19.02
2023-04-17T00:49:15.702Z,18.50
2023-04-17T00:51:43.800Z,20.20
2023-04-17T00:54:12.470Z,17.85
2023-04-17T00:56:43.070Z,18.17
2023-04-17T00:59:13.649Z,18.17
2023-04-17T01:01:42.028Z,18.45
2023-04-17T01:04:11.207Z,18.65
2023-04-17T01:06:41.909Z,18.80
2023-04-17T01:09:10.590Z,18.20
2023-04-17T01:11:39.531Z,17.98
2023-04-17T01:14:07.598Z,19.73
2023-04-17T01:16:40.210Z,18.83
2023-04-17T01:19:09.961Z,19.15
2023-04-17T01:21:38.260Z,18.13
2023-04-17T01:24:08.468Z,18.05
2023-04-17T01:26:37.217Z,18.88
2023-04-17T01:29:05.294Z,18.27
2023-04-17T01:31:33.404Z,17.75
2023-04-17T01:34:01.598Z,18.92
2023-04-17T01:36:29.752Z,18.45
2023-04-17T01:38:57.845Z,18.65
2023-04-17T01:41:27.265Z,18.40
2023-04-17T01:43:55.321Z,18.85
2023-04-17T01:46:23.456Z,18.25
2023-04-17T01:48:51.687Z,18.30
2023-04-17T01:51:19.906Z,17.65
2023-04-17T01:53:47.987Z,18.45
2023-04-17T01:56:16.131Z,18.30
2023-04-17T01:58:45.570Z,18.42
2023-04-17T02:01:13.802Z,19.60
2023-04-17T02:03:42.257Z,20.63
2023-04-17T02:06:11.606Z,19.15
2023-04-17T02:08:39.789Z,19.00
2023-04-17T02:11:07.871Z,18.55
2023-04-17T02:13:35.936Z,17.85
2023-04-17T02:16:05.818Z,18.05
2023-04-17T02:18:33.981Z,17.38
2023-04-17T02:21:02.048Z,18.55
2023-04-17T02:23:30.599Z,18.17
2023-04-17T02:25:58.780Z,18.92
2023-04-17T02:28:26.911Z,19.20
2023-04-17T02:30:55.183Z,18.65
2023-04-17T02:33:24.681Z,19.50
2023-04-17T02:35:52.829Z,19.52
2023-04-17T02:38:20.941Z,18.60
2023-04-17T02:40:49.104Z,19.25
2023-04-17T02:43:17.298Z,18.65
2023-04-17T02:45:45.446Z,18.98
2023-04-17T02:48:13.753Z,18.17
2023-04-17T02:50:43.286Z,18.17
2023-04-17T02:53:11.895Z,17.90
2023-04-17T02:55:40.001Z,17.98
2023-04-17T02:58:08.045Z,18.98
2023-04-17T03:00:36.132Z,19.48
2023-04-17T03:03:05.020Z,19.30
2023-04-17T03:05:33.182Z,18.92
2023-04-17T03:08:02.734Z,18.55
2023-04-17T03:10:30.909Z,18.95
2023-04-17T03:12:58.999Z,18.65
2023-04-17T03:15:27.113Z,17.75
2023-04-17T03:17:55.444Z,18.17
2023-04-17T03:20:23.595Z,18.35
2023-04-17T03:22:51.685Z,19.35
2023-04-17T03:25:21.273Z,19.02
2023-04-17T03:27:49.391Z,19.08
2023-04-17T03:30:17.452Z,19.40
2023-04-17T03:32:45.732Z,18.65
2023-04-17T03:35:13.863Z,18.80
2023-04-17T03:37:41.998Z,19.35
2023-04-17T03:40:10.860Z,19.98
2023-04-17T03:42:40.646Z,19.60
2023-04-17T03:45:10.440Z,19.27
2023-04-17T03:47:38.596Z,19.50
2023-04-17T03:50:08.000Z,19.45
2023-04-17T03:52:36.179Z,17.67
2023-04-17T03:55:04.556Z,18.92
2023-04-17T03:57:32.723Z,19.17
2023-04-17T04:00:02.226Z,18.08
2023-04-17T04:02:30.342Z,18.85
2023-04-17T04:04:58.560Z,18.05
2023-04-17T04:07:26.679Z,20.38
2023-04-17T04:09:55.781Z,19.35
2023-04-17T04:12:24.041Z,19.92
2023-04-17T04:14:52.084Z,19.23
2023-04-17T04:17:21.664Z,18.30
2023-04-17T04:19:49.770Z,19.13
2023-04-17T04:22:18.621Z,18.88
2023-04-17T04:24:47.312Z,18.40
2023-04-17T04:27:18.114Z,18.38
2023-04-17T04:29:48.920Z,18.80
2023-04-17T04:32:17.135Z,18.52
2023-04-17T04:34:46.878Z,18.50
2023-04-17T04:37:16.022Z,18.02
2023-04-17T04:39:44.375Z,18.60
2023-04-17T04:42:12.446Z,18.17
2023-04-17T04:44:40.632Z,18.25
2023-04-17T04:47:08.794Z,18.08
2023-04-17T04:49:36.948Z,17.83
2023-04-17T04:52:06.675Z,17.77
2023-04-17T04:54:34.764Z,18.23
2023-04-17T04:57:02.840Z,19.85
2023-04-17T04:59:30.956Z,19.40
2023-04-17T05:01:59.120Z,18.77
2023-04-17T05:04:28.204Z,18.30
2023-04-17T05:06:57.776Z,18.48
2023-04-17T05:09:27.383Z,18.75
2023-04-17T05:11:55.512Z,17.90
2023-04-17T05:14:23.594Z,19.35
2023-04-17T05:16:51.843Z,22.00
2023-04-17T05:19:20.266Z,21.30
2023-04-17T05:21:48.377Z,20.48
2023-04-17T05:24:16.449Z,21.55
2023-04-17T05:26:45.901Z,20.80
2023-04-17T05:29:14.087Z,20.80
2023-04-17T05:31:42.386Z,20.85
2023-04-17T05:34:10.570Z,21.23
2023-04-17T05:36:38.622Z,20.83
2023-04-17T05:39:06.762Z,20.58
2023-04-17T05:41:34.829Z,19.65
2023-04-17T05:44:04.269Z,19.27
2023-04-17T05:46:32.608Z,18.33
2023-04-17T05:49:00.682Z,20.63
2023-04-17T05:51:29.066Z,25.38
2023-04-17T05:53:57.467Z,22.52
2023-04-17T05:56:25.542Z,18.65
2023-04-17T05:58:53.616Z,18.45
2023-04-17T06:01:23.594Z,17.35
2023-04-17T06:03:51.844Z,18.55
2023-04-17T06:06:20.086Z,18.70
2023-04-17T06:08:48.165Z,20.10
2023-04-17T06:11:17.217Z,22.05
2023-04-17T06:13:45.485Z,20.80
2023-04-17T06:16:13.612Z,19.83
2023-04-17T06:18:43.069Z,19.00
2023-04-17T06:21:11.336Z,18.25
2023-04-17T06:23:39.378Z,18.52
2023-04-17T06:26:07.515Z,18.63
2023-04-17T06:28:35.571Z,19.17
2023-04-17T06:31:03.918Z,18.80
2023-04-17T06:33:32.033Z,19.23
2023-04-17T06:36:01.564Z,17.77
2023-04-17T06:38:29.657Z,17.27
2023-04-17T06:40:57.806Z,17.92
2023-04-17T06:43:26.102Z,17.88
2023-04-17T06:45:54.464Z,18.02
2023-04-17T06:48:22.576Z,19.40
2023-04-17T06:50:50.801Z,17.98
2023-04-17T06:53:21.555Z,18.35
2023-04-17T06:55:49.660Z,18.95
2023-04-17T06:58:17.755Z,18.70
2023-04-17T07:00:45.828Z,19.90
2023-04-17T07:03:15.041Z,19.40
2023-04-17T07:05:45.210Z,19.10
2023-04-17T07:08:13.536Z,19.70
2023-04-17T07:10:43.016Z,19.45
2023-04-17T07:13:11.096Z,17.60
2023-04-17T07:15:39.223Z,18.33
2023-04-17T07:18:07.677Z,19.98
2023-04-17T07:20:36.034Z,19.42
2023-04-17T07:23:04.126Z,19.42
2023-04-17T07:25:32.188Z,19.17
2023-04-17T07:28:03.282Z,19.38
2023-04-17T07:30:32.748Z,18.63
2023-04-17T07:33:01.798Z,19.42
2023-04-17T07:35:30.128Z,17.83
2023-04-17T07:38:01.122Z,18.52
2023-04-17T07:40:29.571Z,16.98
2023-04-17T07:42:57.666Z,15.85
2023-04-17T07:45:28.539Z,17.60
2023-04-17T07:47:56.811Z,16.45
2023-04-17T07:50:25.273Z,16.02
2023-04-17T07:52:53.390Z,16.15
2023-04-17T07:55:21.601Z,15.38
2023-04-17T07:57:51.569Z,15.68
2023-04-17T08:00:21.500Z,15.57
2023-04-17T08:02:51.390Z,14.40
2023-04-17T08:05:19.772Z,14.70
2023-04-17T08:07:47.877Z,14.55
2023-04-17T08:10:16.129Z,13.68
2023-04-17T08:12:44.513Z,13.40
2023-04-17T08:15:13.221Z,14.32
2023-04-17T08:17:41.438Z,14.48
2023-04-17T08:20:11.716Z,12.77
2023-04-17T08:22:41.012Z,12.40
2023-04-17T08:25:10.309Z,13.40
2023-04-17T08:27:39.822Z,12.88
2023-04-17T08:30:12.587Z,12.65
2023-04-17T08:32:43.104Z,12.07
2023-04-17T08:35:14.012Z,12.82
2023-04-17T08:37:44.308Z,12.55
2023-04-17T08:40:13.302Z,11.38
2023-04-17T08:42:42.968Z,11.65
2023-04-17T08:45:12.859Z,10.68
2023-04-17T08:47:41.766Z,10.55
2023-04-17T08:50:13.055Z,9.35
2023-04-17T08:52:42.575Z,9.48
2023-04-17T08:55:12.009Z,8.10
2023-04-17T08:57:55.876Z,8.73
2023-04-17T09:00:28.479Z,8.50
2023-04-17T09:02:58.868Z,8.45
2023-04-17T09:05:33.306Z,7.75
2023-04-17T09:08:10.652Z,7.38
2023-04-17T09:10:39.642Z,8.05
2023-04-17T09:13:08.531Z,7.47
2023-04-17T09:15:37.913Z,7.78
2023-04-17T09:18:06.148Z,7.63
2023-04-17T09:20:50.552Z,6.82
2023-04-17T09:23:18.986Z,7.40
2023-04-17T09:25:47.449Z,7.38
2023-04-17T09:28:16.701Z,6.80
2023-04-17T09:30:45.051Z,7.22
2023-04-17T09:33:13.114Z,7.82
2023-04-17T09:35:42.623Z,7.55
2023-04-17T09:38:10.718Z,7.38
2023-04-17T09:40:40.627Z,7.95
2023-04-17T09:43:10.409Z,6.93
2023-04-17T09:45:42.462Z,7.18
2023-04-17T09:48:12.829Z,5.82
2023-04-17T09:50:42.656Z,5.15
2023-04-17T09:53:11.446Z,4.93
2023-04-17T09:55:43.619Z,5.00
2023-04-17T09:58:12.308Z,5.45
2023-04-17T10:00:42.952Z,5.57
2023-04-17T10:03:11.461Z,5.93
2023-04-17T10:05:39.903Z,5.80
2023-04-17T10:08:09.584Z,4.95
2023-04-17T10:10:37.736Z,4.90
2023-04-17T10:13:09.240Z,5.13
2023-04-17T10:15:38.090Z,5.15
2023-04-17T10:18:23.599Z,5.03
2023-04-17T10:20:53.374Z,6.00
2023-04-17T10:23:31.978Z,4.80
2023-04-17T10:26:42.506Z,5.47
2023-04-17T10:29:12.640Z,4.90
2023-04-17T10:32:25.816Z,4.95
2023-04-17T10:34:54.847Z,4.97
2023-04-17T10:37:25.390Z,4.93
2023-04-17T10:39:57.632Z,4.28
2023-04-17T10:42:27.877Z,4.57
2023-04-17T10:44:59.676Z,5.03
2023-04-17T10:47:33.491Z,5.18
2023-04-17T10:50:04.014Z,5.03
2023-04-17T10:52:44.890Z,5.25
2023-04-17T10:55:17.415Z,4.90
2023-04-17T10:58:00.735Z,5.65
2023-04-17T11:00:34.135Z,5.78
2023-04-17T11:05:32.358Z,5.82
2023-04-17T11:08:01.060Z,5.00
2023-04-17T11:10:30.752Z,5.30
2023-04-17T11:12:58.835Z,5.63
2023-04-17T11:15:28.791Z,5.43
2023-04-17T11:17:58.089Z,5.22
2023-04-17T11:20:27.269Z,4.85
2023-04-17T11:22:56.080Z,5.22
2023-04-17T11:25:26.226Z,4.88
2023-04-17T11:27:58.601Z,5.43
2023-04-17T11:30:31.618Z,4.87
2023-04-17T11:33:01.822Z,5.38
2023-04-17T11:35:33.125Z,4.88
2023-04-17T11:38:14.186Z,5.30
2023-04-17T11:40:46.665Z,4.88
2023-04-17T11:43:16.431Z,4.70
2023-04-17T11:45:46.971Z,4.43
2023-04-17T11:48:16.131Z,4.45
2023-04-17T11:50:45.235Z,4.38
2023-04-17T11:53:17.303Z,4.05
2023-04-17T11:55:45.989Z,4.20
2023-04-17T11:58:15.791Z,4.10
2023-04-17T12:00:43.922Z,4.10
2023-04-17T12:03:39.085Z,4.00
2023-04-17T12:06:07.713Z,3.95
2023-04-17T12:08:45.039Z,3.67
2023-04-17T12:11:26.135Z,3.60
2023-04-17T12:13:56.367Z,3.95
2023-04-17T12:16:25.825Z,4.20
2023-04-17T12:18:54.605Z,3.97
2023-04-17T12:21:24.044Z,3.90
2023-04-17T12:23:52.617Z,3.67
2023-04-17T12:26:20.849Z,3.10
2023-04-17T12:28:48.937Z,2.85
2023-04-17T12:31:18.484Z,3.05
2023-04-17T12:33:47.282Z,3.15
2023-04-17T12:36:15.491Z,3.83
2023-04-17T12:38:43.984Z,3.53
2023-04-17T12:41:12.095Z,3.60
2023-04-17T12:43:40.401Z,3.75
2023-04-17T12:46:08.677Z,4.18
2023-04-17T12:48:38.254Z,3.83
2023-04-17T12:51:06.366Z,3.53
2023-04-17T12:53:34.420Z,3.78
2023-04-17T12:56:02.529Z,3.83
2023-04-17T12:58:31.114Z,3.60
2023-04-17T13:00:59.233Z,3.70
2023-04-17T13:03:27.712Z,3.20
2023-04-17T13:05:57.480Z,3.42
2023-04-17T13:08:25.569Z,3.17
2023-04-17T13:10:53.628Z,3.60
2023-04-17T13:13:21.691Z,3.20
2023-04-17T13:15:49.771Z,3.42
2023-04-17T13:18:17.917Z,3.33
2023-04-17T13:20:45.981Z,3.35
2023-04-17T13:23:15.449Z,4.03
2023-04-17T13:25:43.551Z,3.30
2023-04-17T13:28:11.991Z,2.67
2023-04-17T13:30:40.127Z,2.85
2023-04-17T13:33:08.344Z,3.38
2023-04-17T13:35:36.735Z,3.00
2023-04-17T13:38:05.503Z,3.13
2023-04-17T13:40:36.288Z,3.42
2023-04-17T13:43:06.037Z,3.20
2023-04-17T13:45:34.149Z,3.08
2023-04-17T13:48:02.593Z,2.92
2023-04-17T13:50:30.788Z,2.90
2023-04-17T13:52:58.875Z,3.15
2023-04-17T13:55:26.978Z,2.88
2023-04-17T13:57:56.452Z,2.97
2023-04-17T14:00:25.056Z,3.05
2023-04-17T14:02:53.273Z,2.50
2023-04-17T14:05:21.427Z,3.25
2023-04-17T14:07:49.505Z,3.90
2023-04-17T14:10:17.847Z,3.88
2023-04-17T14:12:46.147Z,3.70
2023-04-17T14:15:16.221Z,4.00
2023-04-17T14:17:44.454Z,4.57
2023-04-17T14:20:15.169Z,3.55
2023-04-17T14:22:43.313Z,3.63
2023-04-17T14:25:11.558Z,4.18
2023-04-17T14:27:39.955Z,3.58
2023-04-17T14:30:09.169Z,4.03
2023-04-17T14:32:39.571Z,3.22
2023-04-17T14:35:08.527Z,3.22
2023-04-17T14:37:36.826Z,3.40
2023-04-17T14:40:05.501Z,3.90
2023-04-17T14:42:40.807Z,3.90
2023-04-17T14:45:19.316Z,3.88
2023-04-17T14:47:48.875Z,4.35
2023-04-17T14:50:17.103Z,4.18
2023-04-17T14:52:45.327Z,4.43
2023-04-17T14:55:13.491Z,3.65
2023-04-17T14:57:41.652Z,3.58
2023-04-17T15:00:10.657Z,4.10
2023-04-17T15:02:39.529Z,3.90
2023-04-17T15:05:10.447Z,3.55
2023-04-17T15:07:38.501Z,3.53
2023-04-17T15:10:07.805Z,3.85
2023-04-17T15:12:35.939Z,3.83
2023-04-17T15:15:04.182Z,4.20
2023-04-17T15:17:32.279Z,3.65
2023-04-17T15:20:01.205Z,4.53
2023-04-17T15:22:30.717Z,3.97
2023-04-17T15:24:58.864Z,4.38
2023-04-17T15:27:27.147Z,4.30
2023-04-17T15:29:55.294Z,4.45
2023-04-17T15:32:23.492Z,5.20
2023-04-17T15:34:51.595Z,4.88
2023-04-17T15:37:19.706Z,4.18
2023-04-17T15:39:49.169Z,4.97
2023-04-17T15:42:17.244Z,4.57
2023-04-17T15:44:45.312Z,4.53
2023-04-17T15:47:14.143Z,4.60
2023-04-17T15:49:43.262Z,4.85
2023-04-17T15:52:11.336Z,4.78
2023-04-17T15:54:39.406Z,4.40
2023-04-17T15:57:08.875Z,4.40
2023-04-17T15:59:36.946Z,4.90
2023-04-17T16:02:05.635Z,5.07
2023-04-17T16:04:33.911Z,5.30
2023-04-17T16:07:02.132Z,5.10
2023-04-17T16:09:30.719Z,4.43
2023-04-17T16:11:59.563Z,5.03
2023-04-17T16:14:28.997Z,6.28
2023-04-17T16:16:59.628Z,5.53
2023-04-17T16:19:27.822Z,5.70
2023-04-17T16:21:56.680Z,5.72
2023-04-17T16:24:25.213Z,5.43
2023-04-17T16:26:55.434Z,5.07
2023-04-17T16:29:23.916Z,5.43
2023-04-17T16:31:54.178Z,5.38
2023-04-17T16:34:22.306Z,5.70
2023-04-17T16:36:50.606Z,5.63
2023-04-17T16:39:18.683Z,5.20
2023-04-17T16:41:46.775Z,5.57
2023-04-17T16:44:14.898Z,5.30
2023-04-17T16:46:59.269Z,5.55
2023-04-17T16:49:32.715Z,5.72
2023-04-17T16:52:00.816Z,6.70
2023-04-17T16:54:28.928Z,7.07
2023-04-17T16:56:57.052Z,6.30
2023-04-17T16:59:25.170Z,6.03
2023-04-17T17:01:53.286Z,6.55
2023-04-17T17:04:21.416Z,6.78
2023-04-17T17:06:53.113Z,6.43
2023-04-17T17:09:21.226Z,7.18
2023-04-17T17:11:49.532Z,7.00
2023-04-17T17:14:17.642Z,6.32
2023-04-17T17:16:45.766Z,6.30
2023-04-17T17:19:14.780Z,6.38
2023-04-17T17:21:43.058Z,6.50
2023-04-17T17:24:12.542Z,6.38
2023-04-17T17:26:40.665Z,6.00
2023-04-17T17:29:08.807Z,6.30
2023-04-17T17:31:36.894Z,6.40
2023-04-17T17:34:17.062Z,6.00
2023-04-17T17:36:53.114Z,6.60
2023-04-17T17:39:22.800Z,6.80
2023-04-17T17:41:50.932Z,6.60
2023-04-17T17:44:19.040Z,6.75
2023-04-17T17:46:47.139Z,6.57
2023-04-17T17:49:15.297Z,6.32
2023-04-17T17:51:44.504Z,6.55
2023-04-17T17:54:13.129Z,7.05
2023-04-17T17:56:43.016Z,6.13
2023-04-17T17:59:11.254Z,7.15
2023-04-17T18:01:40.221Z,7.38
2023-04-17T18:04:08.944Z,7.22
2023-04-17T18:06:37.165Z,6.70
2023-04-17T18:09:05.309Z,6.70
2023-04-17T18:11:33.365Z,7.68
2023-04-17T18:14:02.830Z,6.75
2023-04-17T18:16:32.701Z,7.25
2023-04-17T18:19:03.557Z,6.85
2023-04-17T18:21:31.973Z,7.05
2023-04-17T18:24:00.356Z,6.80
2023-04-17T18:26:28.514Z,6.93
2023-04-17T18:28:56.601Z,7.07
2023-04-17T18:31:26.766Z,6.53
2023-04-17T18:33:54.880Z,7.15
2023-04-17T18:36:22.982Z,6.45
2023-04-17T18:38:51.052Z,7.28
2023-04-17T18:41:19.156Z,6.13
2023-04-17T18:43:47.280Z,6.80
2023-04-17T18:46:15.524Z,7.38
2023-04-17T18:48:45.010Z,7.07
2023-04-17T18:51:14.544Z,6.40
2023-04-17T18:53:42.645Z,6.85
2023-04-17T18:56:10.991Z,6.20
2023-04-17T18:58:40.446Z,7.03
2023-04-17T19:01:10.547Z,6.55
2023-04-17T19:03:39.093Z,5.93
2023-04-17T19:06:08.638Z,6.70
2023-04-17T19:08:36.940Z,6.10
2023-04-17T19:11:05.060Z,7.13
2023-04-17T19:13:33.237Z,6.85
2023-04-17T19:16:01.353Z,5.97
2023-04-17T19:18:29.633Z,6.88
2023-04-17T19:20:57.746Z,6.45
2023-04-17T19:23:27.315Z,6.07
2023-04-17T19:25:56.370Z,6.00
2023-04-17T19:28:25.233Z,6.80
2023-04-17T19:30:53.302Z,7.05
2023-04-17T19:33:22.789Z,7.10
2023-04-17T19:35:52.291Z,6.22
2023-04-17T19:38:20.384Z,6.43
2023-04-17T19:41:11.934Z,5.90
2023-04-17T19:43:39.981Z,6.28
2023-04-17T19:46:08.690Z,6.45
2023-04-17T19:48:37.131Z,6.53
2023-04-17T19:51:06.793Z,6.47
2023-04-17T19:53:36.255Z,6.18
2023-04-17T19:56:08.480Z,6.32
2023-04-17T19:58:37.067Z,6.10
2023-04-17T20:01:05.906Z,6.15
2023-04-17T20:03:35.412Z,6.50
2023-04-17T20:06:03.798Z,6.10
2023-04-17T20:08:31.891Z,6.40
2023-04-17T20:10:59.965Z,6.25
2023-04-17T20:13:29.416Z,6.40
2023-04-17T20:15:57.495Z,6.57
2023-04-17T20:18:25.656Z,6.53
2023-04-17T20:20:53.707Z,6.20
2023-04-17T20:23:21.783Z,5.95
2023-04-17T20:25:50.468Z,6.20
2023-04-17T20:28:18.534Z,5.75
2023-04-17T20:30:48.035Z,5.93
2023-04-17T20:33:16.318Z,6.40
2023-04-17T20:35:44.473Z,5.80
2023-04-17T20:38:12.638Z,6.00
2023-04-17T20:40:40.753Z,6.10
2023-04-17T20:43:09.146Z,5.70
2023-04-17T20:45:37.229Z,5.45
2023-04-17T20:48:06.818Z,5.57
2023-04-17T20:50:34.906Z,6.05
2023-04-17T20:53:03.055Z,5.65
2023-04-17T20:55:31.196Z,6.18
2023-04-17T20:57:59.251Z,5.40
2023-04-17T21:00:27.513Z,5.57
2023-04-17T21:02:58.028Z,6.13
2023-04-17T21:05:27.850Z,6.15
2023-04-17T21:07:57.632Z,5.40
2023-04-17T21:10:25.967Z,5.75
2023-04-17T21:12:54.050Z,5.47
2023-04-17T21:15:22.342Z,5.78
2023-04-17T21:17:50.499Z,5.80
2023-04-17T21:20:18.602Z,5.65
2023-04-17T21:22:48.026Z,6.15
2023-04-17T21:25:16.110Z,5.72
2023-04-17T21:27:44.453Z,5.75
2023-04-17T21:30:12.872Z,6.38
2023-04-17T21:32:42.174Z,6.55
2023-04-17T21:35:11.365Z,6.40
2023-04-17T21:37:39.458Z,5.78
2023-04-17T21:40:10.695Z,6.40
2023-04-17T21:42:38.785Z,7.00
2023-04-17T21:45:08.104Z,6.97
2023-04-17T21:47:36.213Z,6.20
2023-04-17T21:50:04.404Z,6.22
2023-04-17T21:52:32.665Z,6.55
2023-04-17T21:55:05.107Z,6.60
2023-04-17T21:57:35.112Z,6.63
2023-04-17T22:00:04.364Z,6.50
2023-04-17T22:02:34.733Z,6.72
2023-04-17T22:05:02.897Z,6.75
2023-04-17T22:07:35.899Z,6.72
2023-04-17T22:10:10.811Z,7.00
2023-04-17T22:12:40.336Z,6.57
2023-04-17T22:15:09.746Z,7.20
2023-04-17T22:17:37.900Z,7.05
2023-04-17T22:20:06.922Z,7.63
2023-04-17T22:22:34.985Z,6.68
2023-04-17T22:25:03.077Z,6.25
2023-04-17T22:27:31.274Z,6.95
2023-04-17T22:30:00.841Z,7.55
2023-04-17T22:32:29.220Z,8.15
2023-04-17T22:34:57.305Z,7.10
2023-04-17T22:37:25.533Z,7.32
2023-04-17T22:39:53.640Z,7.22
2023-04-17T22:42:21.866Z,7.32
2023-04-17T22:44:49.953Z,7.28
2023-04-17T22:47:19.495Z,6.88
2023-04-17T22:49:47.557Z,6.75
2023-04-17T22:52:15.647Z,7.03
2023-04-17T22:54:43.778Z,7.28
2023-04-17T22:57:11.981Z,7.15
2023-04-17T22:59:41.313Z,6.28
2023-04-17T23:02:09.430Z,7.00
2023-04-17T23:04:39.024Z,7.38
2023-04-17T23:07:07.133Z,6.60
2023-04-17T23:09:35.239Z,7.10
2023-04-17T23:12:03.377Z,8.75
2023-04-17T23:14:31.494Z,7.97
2023-04-17T23:16:59.586Z,7.38
2023-04-17T23:19:27.709Z,7.07
2023-04-17T23:21:59.358Z,7.30
2023-04-17T23:24:27.697Z,6.85
2023-04-17T23:26:56.185Z,7.13
2023-04-17T23:29:24.273Z,7.05
2023-04-17T23:31:52.425Z,7.18
2023-04-17T23:34:20.575Z,7.30
2023-04-17T23:36:48.977Z,7.60
2023-04-17T23:39:18.672Z,7.82
2023-04-17T23:41:46.723Z,6.72
2023-04-17T23:44:14.974Z,7.78
2023-04-17T23:46:43.384Z,7.63
2023-04-17T23:49:11.467Z,7.68
2023-04-17T23:51:39.550Z,8.85
2023-04-17T23:54:08.511Z,8.40
2023-04-17T23:56:37.975Z,7.93
2023-04-17T23:59:06.092Z,8.70
